Time;durP1;ratioP1;P1;durP2;ratioP2;P2;SDS_P1;SDS_P2;PMS_P1;PMS_P2;Temp;Humidity;BMP_temperature;BMP_pressure;BME280_temperature;BME280_humidity;BME280_pressure;Samples;Min_cycle;Max_cycle;Signal;HPM_P1;HPM_P2
2021/09/29 00:01:26;;;;;;;6.27;0.83;;;;;;;;;;5071262;28;20195;-80
2021/09/29 00:03:54;;;;;;;4.77;1.03;;;;;;;;;;5053974;28;20236;-79
2021/09/29 00:06:21;;;;;;;5.03;1.10;;;;;;;;;;5053755;28;20266;-79
2021/09/29 00:08:49;;;;;;;6.90;1.10;;;;;;;;;;5053801;28;20283;-79
2021/09/29 00:11:16;;;;;;;2.67;0.97;;;;;;;;;;5058720;28;20215;-79
2021/09/29 00:13:43;;;;;;;3.37;1.00;;;;;;;;;;5073452;28;20671;-79
2021/09/29 00:16:10;;;;;;;4.57;0.90;;;;;;;;;;5073284;28;20257;-79
2021/09/29 00:18:38;;;;;;;6.03;0.93;;;;;;;;;;5066209;28;20655;-80
2021/09/29 00:21:06;;;;;;;6.93;0.80;;;;;;;;;;5073126;28;20651;-79
2021/09/29 00:23:33;;;;;;;4.83;0.73;;;;;;;;;;5065447;28;20275;-79
2021/09/29 00:26:01;;;;;;;6.27;1.00;;;;;;;;;;5053640;28;20222;-79
2021/09/29 00:28:28;;;;;;;2.83;0.73;;;;;;;;;;5053703;28;20227;-79
2021/09/29 00:31:04;;;;;;;3.97;0.70;;;;;;;;;;5066734;28;20242;-80
2021/09/29 00:33:34;;;;;;;4.10;0.90;;;;;;;;;;5073241;28;20245;-79
2021/09/29 00:36:01;;;;;;;2.60;0.60;;;;;;;;;;5073565;28;20235;-79
2021/09/29 00:38:31;;;;;;;2.70;0.90;;;;;;;;;;5073189;28;20230;-79
2021/09/29 00:40:58;;;;;;;4.00;1.03;;;;;;;;;;5071971;28;20257;-79
2021/09/29 00:43:26;;;;;;;5.87;0.90;;;;;;;;;;5073148;28;20290;-79
2021/09/29 00:45:54;;;;;;;3.40;0.90;;;;;;;;;;5072340;28;20687;-80
2021/09/29 00:48:21;;;;;;;4.17;0.90;;;;;;;;;;5072403;28;20294;-79
2021/09/29 00:50:49;;;;;;;3.53;1.27;;;;;;;;;;5057419;28;20241;-79
2021/09/29 00:53:17;;;;;;;6.43;0.80;;;;;;;;;;5071877;28;20285;-79
2021/09/29 00:55:45;;;;;;;3.17;0.87;;;;;;;;;;5064989;28;20326;-80
2021/09/29 00:58:12;;;;;;;5.00;0.57;;;;;;;;;;5066415;28;20740;-79
2021/09/29 01:00:40;;;;;;;5.03;0.73;;;;;;;;;;5059574;28;20295;-79
2021/09/29 01:03:07;;;;;;;4.57;0.50;;;;;;;;;;5052032;28;20311;-79
2021/09/29 01:05:35;;;;;;;5.37;0.70;;;;;;;;;;5052470;28;20231;-78
2021/09/29 01:08:05;;;;;;;7.10;1.37;;;;;;;;;;5070825;28;20310;-79
2021/09/29 01:10:35;;;;;;;4.70;0.60;;;;;;;;;;5071206;28;20627;-79
2021/09/29 01:13:09;;;;;;;4.27;0.57;;;;;;;;;;5051903;28;20282;-79
2021/09/29 01:15:40;;;;;;;4.00;0.57;;;;;;;;;;5065521;28;20198;-80
2021/09/29 01:18:10;;;;;;;6.13;0.83;;;;;;;;;;5063618;28;20640;-79
2021/09/29 01:20:38;;;;;;;4.60;0.70;;;;;;;;;;5051845;28;20758;-79
2021/09/29 01:23:12;;;;;;;5.87;0.97;;;;;;;;;;5061256;28;20612;-79
2021/09/29 01:25:46;;;;;;;5.80;0.90;;;;;;;;;;5071794;28;20290;-79
2021/09/29 01:28:15;;;;;;;7.17;1.20;;;;;;;;;;5070828;28;20207;-79
2021/09/29 01:30:43;;;;;;;4.83;0.80;;;;;;;;;;5065421;28;20278;-79
2021/09/29 01:33:10;;;;;;;3.70;0.70;;;;;;;;;;5054718;28;20278;-79
2021/09/29 01:35:37;;;;;;;5.13;0.70;;;;;;;;;;5071967;28;20572;-79
2021/09/29 01:38:05;;;;;;;3.93;0.77;;;;;;;;;;5067085;28;20294;-79
2021/09/29 01:40:33;;;;;;;8.03;1.00;;;;;;;;;;5071628;28;20262;-79
2021/09/29 01:43:00;;;;;;;6.23;1.30;;;;;;;;;;5070596;28;20293;-79
2021/09/29 01:45:29;;;;;;;8.33;1.03;;;;;;;;;;5071247;28;20281;-79
2021/09/29 01:47:56;;;;;;;5.87;0.77;;;;;;;;;;5071155;28;20260;-79
2021/09/29 01:50:25;;;;;;;5.40;1.10;;;;;;;;;;5071436;28;20671;-79
2021/09/29 01:52:52;;;;;;;4.13;0.73;;;;;;;;;;5071640;28;20282;-79
2021/09/29 01:55:20;;;;;;;4.77;0.90;;;;;;;;;;5069353;28;20301;-79
2021/09/29 01:57:48;;;;;;;4.73;1.00;;;;;;;;;;5071271;28;20361;-79
2021/09/29 02:00:17;;;;;;;5.90;1.23;;;;;;;;;;5061368;28;20301;-79
2021/09/29 02:02:46;;;;;;;4.37;1.17;;;;;;;;;;5070197;28;20277;-79
2021/09/29 02:05:14;;;;;;;4.20;1.10;;;;;;;;;;5070503;28;20285;-79
2021/09/29 02:07:42;;;;;;;3.87;1.10;;;;;;;;;;5070156;28;20226;-79
2021/09/29 02:10:10;;;;;;;3.43;1.23;;;;;;;;;;5071643;28;20285;-79
2021/09/29 02:12:37;;;;;;;6.17;1.47;;;;;;;;;;5066611;28;20382;-79
2021/09/29 02:15:05;;;;;;;8.30;1.47;;;;;;;;;;5055013;28;20235;-79
2021/09/29 02:17:32;;;;;;;4.60;1.40;;;;;;;;;;5055043;28;20278;-79
2021/09/29 02:20:02;;;;;;;5.67;1.60;;;;;;;;;;5059058;28;20289;-79
2021/09/29 02:22:29;;;;;;;3.93;1.07;;;;;;;;;;5056919;28;20234;-79
2021/09/29 02:24:56;;;;;;;2.87;0.40;;;;;;;;;;5057171;28;20234;-79
2021/09/29 02:27:23;;;;;;;3.33;0.43;;;;;;;;;;5054352;28;20199;-79
2021/09/29 02:29:51;;;;;;;2.50;0.50;;;;;;;;;;5071556;28;20718;-80
2021/09/29 02:32:18;;;;;;;2.03;0.50;;;;;;;;;;5074905;28;20227;-79
2021/09/29 02:34:45;;;;;;;2.00;0.40;;;;;;;;;;5060052;28;20279;-79
2021/09/29 02:37:13;;;;;;;2.20;0.50;;;;;;;;;;5054249;28;20294;-79
2021/09/29 02:39:41;;;;;;;5.53;0.70;;;;;;;;;;5055087;28;20231;-79
2021/09/29 02:42:08;;;;;;;3.30;0.80;;;;;;;;;;5069544;28;20306;-79
2021/09/29 02:44:35;;;;;;;4.03;0.70;;;;;;;;;;5069500;28;20350;-79
2021/09/29 02:47:02;;;;;;;3.93;0.53;;;;;;;;;;5072143;28;20737;-79
2021/09/29 02:49:29;;;;;;;4.33;0.63;;;;;;;;;;5064569;28;20294;-79
2021/09/29 02:51:57;;;;;;;2.87;0.60;;;;;;;;;;5074133;28;20270;-79
2021/09/29 02:54:25;;;;;;;5.73;0.80;;;;;;;;;;5067557;28;20295;-79
2021/09/29 02:56:52;;;;;;;2.10;0.50;;;;;;;;;;5073012;28;20766;-79
2021/09/29 02:59:19;;;;;;;3.93;0.40;;;;;;;;;;5074475;28;20286;-79
2021/09/29 03:01:47;;;;;;;3.20;0.60;;;;;;;;;;5071213;28;20310;-79
2021/09/29 03:04:14;;;;;;;1.97;0.57;;;;;;;;;;5072181;28;20217;-79
2021/09/29 03:06:41;;;;;;;2.03;0.63;;;;;;;;;;5073677;28;20257;-79
2021/09/29 03:09:09;;;;;;;3.23;0.60;;;;;;;;;;5074414;28;20276;-80
2021/09/29 03:11:37;;;;;;;3.23;0.60;;;;;;;;;;5073888;28;20285;-79
2021/09/29 03:14:04;;;;;;;2.03;0.60;;;;;;;;;;5073959;28;20624;-79
2021/09/29 03:16:32;;;;;;;2.27;0.43;;;;;;;;;;5073687;28;20749;-79
2021/09/29 03:19:00;;;;;;;2.23;0.50;;;;;;;;;;5074331;28;20286;-79
2021/09/29 03:21:27;;;;;;;2.13;0.40;;;;;;;;;;5060945;28;20219;-79
2021/09/29 03:23:54;;;;;;;2.50;0.63;;;;;;;;;;5073103;28;20361;-79
2021/09/29 03:26:21;;;;;;;2.50;0.57;;;;;;;;;;5066783;28;20295;-79
2021/09/29 03:28:50;;;;;;;2.77;0.60;;;;;;;;;;5053594;28;20196;-79
2021/09/29 03:31:17;;;;;;;2.50;0.60;;;;;;;;;;5070130;28;20206;-79
2021/09/29 03:33:44;;;;;;;2.30;0.67;;;;;;;;;;5072243;28;20301;-79
2021/09/29 03:36:11;;;;;;;2.47;0.60;;;;;;;;;;5073837;28;20290;-79
2021/09/29 03:38:39;;;;;;;1.47;0.30;;;;;;;;;;5073697;28;20293;-79
2021/09/29 03:41:06;;;;;;;3.07;0.50;;;;;;;;;;5073596;28;20316;-79
2021/09/29 03:43:33;;;;;;;1.37;0.50;;;;;;;;;;5073238;28;20230;-79
2021/09/29 03:46:01;;;;;;;2.00;0.60;;;;;;;;;;5072950;28;20249;-79
2021/09/29 03:48:29;;;;;;;1.93;0.60;;;;;;;;;;5069478;28;20662;-80
2021/09/29 03:50:56;;;;;;;2.37;0.40;;;;;;;;;;5072753;28;20287;-79
2021/09/29 03:53:23;;;;;;;2.67;0.40;;;;;;;;;;5057297;28;20290;-79
2021/09/29 03:55:50;;;;;;;3.30;0.37;;;;;;;;;;5065102;28;20753;-79
2021/09/29 03:58:19;;;;;;;2.87;0.40;;;;;;;;;;5070938;28;20199;-79
2021/09/29 04:00:46;;;;;;;2.63;0.40;;;;;;;;;;5079012;28;20213;-79
2021/09/29 04:03:15;;;;;;;3.67;0.53;;;;;;;;;;5066286;28;20777;-79
2021/09/29 04:05:42;;;;;;;2.00;0.50;;;;;;;;;;5058431;28;20211;-79
2021/09/29 04:08:10;;;;;;;3.20;0.40;;;;;;;;;;5072031;28;20237;-79
2021/09/29 04:10:37;;;;;;;1.93;0.60;;;;;;;;;;5066356;28;20203;-79
2021/09/29 04:13:05;;;;;;;1.90;0.80;;;;;;;;;;5059749;28;20231;-79
2021/09/29 04:15:34;;;;;;;4.57;0.80;;;;;;;;;;5067396;28;20208;-79
2021/09/29 04:18:01;;;;;;;0.83;0.40;;;;;;;;;;5069831;28;20229;-79
2021/09/29 04:20:29;;;;;;;2.63;0.60;;;;;;;;;;5063044;28;20224;-79
2021/09/29 04:22:57;;;;;;;1.63;0.60;;;;;;;;;;5053724;28;20294;-80
2021/09/29 04:25:24;;;;;;;3.97;0.50;;;;;;;;;;5064969;28;20285;-80
2021/09/29 04:27:51;;;;;;;3.40;0.60;;;;;;;;;;5066914;28;20209;-79
2021/09/29 04:30:18;;;;;;;2.20;0.50;;;;;;;;;;5060292;28;20191;-79
2021/09/29 04:32:46;;;;;;;0.87;0.60;;;;;;;;;;5063651;28;20282;-79
2021/09/29 04:35:13;;;;;;;3.90;0.60;;;;;;;;;;5052074;28;20568;-79
2021/09/29 04:37:42;;;;;;;1.90;0.80;;;;;;;;;;5061668;28;20230;-79
2021/09/29 04:40:10;;;;;;;4.07;0.80;;;;;;;;;;5061191;28;20281;-79
2021/09/29 04:42:37;;;;;;;5.50;0.80;;;;;;;;;;5062216;28;20220;-79
2021/09/29 04:45:05;;;;;;;3.37;0.90;;;;;;;;;;5067957;28;20730;-79
2021/09/29 04:47:32;;;;;;;3.83;0.80;;;;;;;;;;5062666;28;20284;-79
2021/09/29 04:50:00;;;;;;;3.33;0.80;;;;;;;;;;5057671;28;20286;-79
2021/09/29 04:52:27;;;;;;;4.20;1.03;;;;;;;;;;5063018;28;20668;-79
2021/09/29 04:54:56;;;;;;;2.70;0.60;;;;;;;;;;5060968;28;20576;-79
2021/09/29 04:57:23;;;;;;;3.43;0.83;;;;;;;;;;5066883;28;20229;-79
2021/09/29 04:59:50;;;;;;;2.63;0.73;;;;;;;;;;5065179;28;20196;-79
2021/09/29 05:02:17;;;;;;;2.23;0.63;;;;;;;;;;5063906;28;20230;-79
2021/09/29 05:04:44;;;;;;;4.77;0.77;;;;;;;;;;5071644;28;20623;-80
2021/09/29 05:07:17;;;;;;;3.47;1.10;;;;;;;;;;5057191;28;20794;-81
2021/09/29 05:09:44;;;;;;;2.60;0.70;;;;;;;;;;5052547;28;20225;-81
2021/09/29 05:12:17;;;;;;;3.63;0.80;;;;;;;;;;5060401;28;20215;-81
2021/09/29 05:14:44;;;;;;;2.43;0.73;;;;;;;;;;5059983;28;20295;-80
2021/09/29 05:17:12;;;;;;;2.70;0.70;;;;;;;;;;5063424;28;20231;-82
2021/09/29 05:19:39;;;;;;;3.70;0.67;;;;;;;;;;5070125;28;20198;-81
2021/09/29 05:22:07;;;;;;;2.07;0.40;;;;;;;;;;5068953;28;20263;-80
2021/09/29 05:24:34;;;;;;;3.50;0.60;;;;;;;;;;5071387;28;20207;-80
2021/09/29 05:27:01;;;;;;;2.50;0.50;;;;;;;;;;5056491;28;20227;-78
2021/09/29 05:29:31;;;;;;;3.37;0.60;;;;;;;;;;5058975;28;20683;-78
2021/09/29 05:31:58;;;;;;;2.43;0.90;;;;;;;;;;5068507;28;20238;-77
2021/09/29 05:34:25;;;;;;;1.37;0.40;;;;;;;;;;5064094;28;20751;-80
2021/09/29 05:36:53;;;;;;;1.43;0.53;;;;;;;;;;5056615;28;20316;-78
2021/09/29 05:39:20;;;;;;;3.83;0.70;;;;;;;;;;5056408;28;20250;-78
2021/09/29 05:41:47;;;;;;;3.93;0.60;;;;;;;;;;5052930;28;20249;-79
2021/09/29 05:44:14;;;;;;;2.20;0.60;;;;;;;;;;5066604;28;20285;-80
2021/09/29 05:46:43;;;;;;;2.90;0.70;;;;;;;;;;5064846;28;20298;-79
2021/09/29 05:49:10;;;;;;;2.53;0.70;;;;;;;;;;5065136;28;20663;-79
2021/09/29 05:51:37;;;;;;;3.53;0.70;;;;;;;;;;5069764;28;20276;-79
2021/09/29 05:54:04;;;;;;;4.00;0.70;;;;;;;;;;5065862;28;20206;-79
2021/09/29 05:56:32;;;;;;;2.27;0.67;;;;;;;;;;5070661;28;20232;-79
2021/09/29 05:58:59;;;;;;;1.80;0.80;;;;;;;;;;5069037;28;20290;-79
2021/09/29 06:01:26;;;;;;;2.40;0.60;;;;;;;;;;5063759;28;20222;-79
2021/09/29 06:03:54;;;;;;;3.93;0.80;;;;;;;;;;5061435;28;20203;-79
2021/09/29 06:06:22;;;;;;;3.30;1.00;;;;;;;;;;5066255;28;20318;-80
2021/09/29 06:08:49;;;;;;;1.47;0.50;;;;;;;;;;5073569;28;20283;-79
2021/09/29 06:11:16;;;;;;;5.03;0.60;;;;;;;;;;5060788;28;20248;-79
2021/09/29 06:13:44;;;;;;;2.57;0.60;;;;;;;;;;5061974;28;20225;-77
2021/09/29 06:16:11;;;;;;;3.53;0.60;;;;;;;;;;5059392;28;20235;-78
2021/09/29 06:18:40;;;;;;;3.00;0.57;;;;;;;;;;5070021;28;20226;-78
2021/09/29 06:21:08;;;;;;;2.67;0.80;;;;;;;;;;5057911;28;20621;-78
2021/09/29 06:23:38;;;;;;;2.57;0.60;;;;;;;;;;5062904;28;20198;-78
2021/09/29 06:26:07;;;;;;;3.03;0.67;;;;;;;;;;5067815;28;20605;-78
2021/09/29 06:28:37;;;;;;;2.77;0.60;;;;;;;;;;5064459;28;20619;-79
2021/09/29 06:31:05;;;;;;;3.67;0.60;;;;;;;;;;5062930;28;20213;-79
2021/09/29 06:33:32;;;;;;;4.43;0.73;;;;;;;;;;5058687;28;20235;-79
2021/09/29 06:35:59;;;;;;;3.60;0.70;;;;;;;;;;5065580;28;20666;-79
2021/09/29 06:38:28;;;;;;;3.20;0.73;;;;;;;;;;5068098;28;20201;-78
2021/09/29 06:40:55;;;;;;;1.57;0.60;;;;;;;;;;5064187;28;20202;-79
2021/09/29 06:43:22;;;;;;;3.07;0.60;;;;;;;;;;5064347;28;20312;-79
2021/09/29 06:45:50;;;;;;;3.03;0.70;;;;;;;;;;5056155;28;20219;-79
2021/09/29 06:48:18;;;;;;;4.67;0.87;;;;;;;;;;5060281;28;20227;-79
2021/09/29 06:50:45;;;;;;;3.30;1.00;;;;;;;;;;5058322;28;20234;-79
2021/09/29 06:53:18;;;;;;;3.17;0.97;;;;;;;;;;5069337;28;20286;-79
2021/09/29 06:55:47;;;;;;;4.00;0.57;;;;;;;;;;5065940;28;20283;-78
2021/09/29 06:58:14;;;;;;;5.43;0.87;;;;;;;;;;5067999;28;20206;-79
2021/09/29 07:00:41;;;;;;;2.07;0.40;;;;;;;;;;5063688;28;20223;-79
2021/09/29 07:03:09;;;;;;;1.80;0.60;;;;;;;;;;5067080;28;20776;-79
2021/09/29 07:05:36;;;;;;;5.07;0.50;;;;;;;;;;5065344;28;20222;-79
2021/09/29 07:08:03;;;;;;;3.30;0.80;;;;;;;;;;5056722;28;20798;-79
2021/09/29 07:10:31;;;;;;;3.37;0.60;;;;;;;;;;5065434;28;20266;-79
2021/09/29 07:12:59;;;;;;;2.97;0.60;;;;;;;;;;5059028;28;20234;-78
2021/09/29 07:15:27;;;;;;;2.05;0.30;;;;;;;;;;5061540;28;20238;-79
2021/09/29 07:17:58;;;;;;;3.00;0.60;;;;;;;;;;5066937;28;20199;-79
2021/09/29 07:20:25;;;;;;;3.78;0.70;;;;;;;;;;5063876;28;20207;-77
2021/09/29 07:22:53;;;;;;;2.03;0.57;;;;;;;;;;5063549;28;20227;-77
2021/09/29 07:25:20;;;;;;;2.92;0.68;;;;;;;;;;5061353;28;20287;-77
2021/09/29 07:27:47;;;;;;;3.65;0.60;;;;;;;;;;5066993;28;20286;-77
2021/09/29 07:30:18;;;;;;;1.58;0.50;;;;;;;;;;5067747;28;20207;-77
2021/09/29 07:32:46;;;;;;;3.42;0.77;;;;;;;;;;5061773;28;20192;-78
2021/09/29 07:35:13;;;;;;;3.72;0.70;;;;;;;;;;5071661;28;20886;-79
2021/09/29 07:37:41;;;;;;;3.97;0.57;;;;;;;;;;5065410;28;20227;-78
2021/09/29 07:40:08;;;;;;;2.50;0.52;;;;;;;;;;5066600;28;20683;-77
2021/09/29 07:42:36;;;;;;;4.05;0.73;;;;;;;;;;5061775;28;20224;-79
2021/09/29 07:45:03;;;;;;;2.65;0.60;;;;;;;;;;5064659;28;20207;-79
2021/09/29 07:47:32;;;;;;;3.30;0.60;;;;;;;;;;5070318;28;20226;-79
2021/09/29 07:49:59;;;;;;;2.08;0.70;;;;;;;;;;5057568;28;20235;-77
2021/09/29 07:52:26;;;;;;;4.47;0.73;;;;;;;;;;5057062;28;20203;-79
2021/09/29 07:54:54;;;;;;;2.17;0.70;;;;;;;;;;5064575;28;20295;-79
2021/09/29 07:57:21;;;;;;;5.72;0.90;;;;;;;;;;5061776;28;20621;-78
2021/09/29 07:59:48;;;;;;;4.72;0.80;;;;;;;;;;5061037;28;20282;-79
2021/09/29 08:02:15;;;;;;;3.38;0.82;;;;;;;;;;5057359;28;20319;-79
2021/09/29 08:04:44;;;;;;;5.50;0.95;;;;;;;;;;5068959;28;20207;-78
2021/09/29 08:07:13;;;;;;;5.38;0.60;;;;;;;;;;5057926;28;20254;-78
2021/09/29 08:09:40;;;;;;;1.60;0.60;;;;;;;;;;5063471;28;20192;-78
2021/09/29 08:12:08;;;;;;;3.58;0.77;;;;;;;;;;5063994;28;20242;-78
2021/09/29 08:14:39;;;;;;;3.17;0.95;;;;;;;;;;5056792;28;20286;-79
2021/09/29 08:17:07;;;;;;;3.53;0.90;;;;;;;;;;5068449;28;20231;-79
2021/09/29 08:19:34;;;;;;;4.05;0.77;;;;;;;;;;5060753;28;20207;-79
2021/09/29 08:22:05;;;;;;;3.20;0.93;;;;;;;;;;5061579;28;20269;-78
2021/09/29 08:24:40;;;;;;;3.15;0.82;;;;;;;;;;5063324;28;20201;-78
2021/09/29 08:27:12;;;;;;;3.10;0.80;;;;;;;;;;5062245;28;20241;-78
2021/09/29 08:29:50;;;;;;;3.40;1.00;;;;;;;;;;5058990;28;20195;-78
2021/09/29 08:32:22;;;;;;;3.08;0.80;;;;;;;;;;5057114;28;20199;-77
2021/09/29 08:34:57;;;;;;;3.40;0.80;;;;;;;;;;5067666;28;20701;-78
2021/09/29 08:37:32;;;;;;;2.88;1.10;;;;;;;;;;5054627;28;20207;-77
2021/09/29 08:40:10;;;;;;;3.97;0.90;;;;;;;;;;5058853;28;20203;-77
2021/09/29 08:42:45;;;;;;;5.15;0.88;;;;;;;;;;5053517;28;20231;-78
2021/09/29 08:45:15;;;;;;;4.45;0.80;;;;;;;;;;5059544;28;20231;-78
2021/09/29 08:47:50;;;;;;;3.63;1.00;;;;;;;;;;5057853;28;20260;-77
2021/09/29 08:50:23;;;;;;;6.75;1.13;;;;;;;;;;5065601;28;20612;-77
2021/09/29 09:17:51;;;;;;;5.78;1.23;;;;;;;;;;5075909;28;20222;-78
2021/09/29 09:20:20;;;;;;;4.65;1.10;;;;;;;;;;5069996;28;20285;-77
2021/09/29 09:22:50;;;;;;;6.88;1.27;;;;;;;;;;5073494;28;20348;-77
2021/09/29 09:25:17;;;;;;;3.83;1.00;;;;;;;;;;5078586;28;20225;-77
2021/09/29 09:27:46;;;;;;;5.40;1.02;;;;;;;;;;5071562;28;20338;-78
2021/09/29 09:30:26;;;;;;;4.18;1.08;;;;;;;;;;5080750;28;20195;-78
2021/09/29 09:32:56;;;;;;;4.32;1.13;;;;;;;;;;5068763;28;20210;-79
2021/09/29 09:35:23;;;;;;;4.78;1.02;;;;;;;;;;5073458;28;20296;-78
2021/09/29 09:37:54;;;;;;;2.55;0.90;;;;;;;;;;5070992;28;20326;-79
2021/09/29 09:40:22;;;;;;;4.47;0.90;;;;;;;;;;5076227;28;20576;-78
2021/09/29 09:42:51;;;;;;;3.78;1.00;;;;;;;;;;5078971;27;20766;-78
2021/09/29 09:45:29;;;;;;;3.92;1.25;;;;;;;;;;5136761;27;20200;-78
2021/09/29 09:47:56;;;;;;;4.50;0.93;;;;;;;;;;5137379;27;20728;-79
2021/09/29 09:50:27;;;;;;;2.65;0.90;;;;;;;;;;5135464;27;20265;-78
2021/09/29 09:56:17;;;;;;;3.60;1.15;;;;;;;;;;5086888;28;20228;-78
2021/09/29 09:58:44;;;;;;;5.88;1.10;;;;;;;;;;5133831;27;20650;-77
2021/09/29 10:01:17;;;;;;;2.78;0.90;;;;;;;;;;5136837;27;20193;-77
2021/09/29 10:03:45;;;;;;;3.80;0.95;;;;;;;;;;5140508;27;20225;-77
2021/09/29 10:06:12;;;;;;;3.17;0.77;;;;;;;;;;5135060;27;20265;-77
2021/09/29 10:08:46;;;;;;;4.65;1.08;;;;;;;;;;5132537;27;20221;-77
2021/09/29 10:11:18;;;;;;;5.53;0.90;;;;;;;;;;5124804;27;20236;-77
2021/09/29 10:27:53;;;;;;;3.28;0.73;;;;;;;;;;5059022;28;20222;-77
2021/09/29 10:30:25;;;;;;;2.70;0.70;;;;;;;;;;5060210;28;20218;-77
2021/09/29 10:32:58;;;;;;;2.85;0.70;;;;;;;;;;5058716;28;20198;-77
2021/09/29 10:35:41;;;;;;;4.55;0.77;;;;;;;;;;5059597;28;20210;-77
2021/09/29 10:41:01;;;;;;;2.13;0.90;;;;;;;;;;5059349;28;20237;-77
2021/09/29 10:43:34;;;;;;;2.03;0.50;;;;;;;;;;5064930;28;20302;-78
2021/09/29 10:46:10;;;;;;;3.03;0.70;;;;;;;;;;5059508;28;20368;-78
2021/09/29 10:49:02;;;;;;;4.68;0.70;;;;;;;;;;5056685;28;20233;-77
2021/09/29 10:52:01;;;;;;;3.03;0.60;;;;;;;;;;5055178;28;20679;-77
2021/09/29 11:05:52;;;;;;;2.55;0.55;;;;;;;;;;5114518;27;20211;-77
2021/09/29 11:08:45;;;;;;;1.98;0.50;;;;;;;;;;5115588;27;20201;-77
2021/09/29 11:28:26;;;;;;;3.95;0.60;;;;;;;;;;5050112;28;20256;-76
2021/09/29 11:30:57;;;;;;;2.20;0.55;;;;;;;;;;5046785;28;20204;-78
2021/09/29 11:33:29;;;;;;;2.78;0.60;;;;;;;;;;5044873;28;20202;-77
2021/09/29 11:36:04;;;;;;;5.50;0.85;;;;;;;;;;5047598;28;20307;-76
2021/09/29 11:49:58;;;;;;;3.63;0.90;;;;;;;;;;5114054;27;20196;-77
2021/09/29 12:09:11;;;;;;;2.63;0.68;;;;;;;;;;5066084;28;20341;-78
2021/09/29 12:11:47;;;;;;;3.97;0.77;;;;;;;;;;5064060;28;20203;-77
2021/09/29 12:14:15;;;;;;;3.03;0.70;;;;;;;;;;5052502;28;20284;-77
2021/09/29 12:16:42;;;;;;;1.63;0.50;;;;;;;;;;5058812;28;20269;-77
2021/09/29 12:19:11;;;;;;;3.15;0.80;;;;;;;;;;5054706;28;20206;-77
2021/09/29 12:21:41;;;;;;;3.40;0.88;;;;;;;;;;5064679;28;20203;-77
2021/09/29 12:24:10;;;;;;;2.33;0.50;;;;;;;;;;5049215;28;20196;-77
2021/09/29 12:26:47;;;;;;;3.17;0.77;;;;;;;;;;5062009;28;20198;-77
2021/09/29 12:29:21;;;;;;;6.82;0.82;;;;;;;;;;5059875;28;20658;-77
2021/09/29 12:34:45;;;;;;;5.43;0.82;;;;;;;;;;5083429;27;20214;-76
2021/09/29 12:37:13;;;;;;;4.35;0.55;;;;;;;;;;5131325;27;20312;-75
2021/09/29 12:39:42;;;;;;;4.50;0.90;;;;;;;;;;5123247;27;20280;-77
2021/09/29 12:42:11;;;;;;;7.75;1.10;;;;;;;;;;5112622;27;20218;-76
2021/09/29 12:44:51;;;;;;;4.30;0.88;;;;;;;;;;5126158;27;20685;-76
2021/09/29 12:47:24;;;;;;;4.80;0.70;;;;;;;;;;5125718;27;20721;-77
2021/09/29 12:49:51;;;;;;;2.83;0.70;;;;;;;;;;5124142;27;20208;-76
2021/09/29 12:52:28;;;;;;;3.85;0.88;;;;;;;;;;5132241;27;20273;-76
2021/09/29 12:54:57;;;;;;;2.80;0.80;;;;;;;;;;5123228;27;20192;-76
2021/09/29 12:57:29;;;;;;;3.05;0.60;;;;;;;;;;5121545;27;20293;-76
2021/09/29 12:59:56;;;;;;;4.22;0.70;;;;;;;;;;5124040;27;20190;-76
2021/09/29 13:02:23;;;;;;;5.10;0.93;;;;;;;;;;5123493;28;20296;-76
2021/09/29 13:04:51;;;;;;;2.13;0.57;;;;;;;;;;5122779;27;20224;-76
2021/09/29 13:07:18;;;;;;;3.40;0.80;;;;;;;;;;5110801;27;20272;-76
2021/09/29 13:09:46;;;;;;;1.55;0.50;;;;;;;;;;5124733;27;20193;-76
2021/09/29 13:12:13;;;;;;;2.33;0.70;;;;;;;;;;5114994;28;20193;-77
2021/09/29 13:14:42;;;;;;;3.50;0.80;;;;;;;;;;5124420;27;20296;-75
2021/09/29 13:17:10;;;;;;;1.52;0.47;;;;;;;;;;5121802;27;20247;-77
2021/09/29 13:19:44;;;;;;;3.22;0.85;;;;;;;;;;5117300;27;20212;-77
2021/09/29 13:22:19;;;;;;;4.55;0.90;;;;;;;;;;5124779;28;20193;-77
2021/09/29 13:38:44;;;;;;;6.57;1.00;;;;;;;;;;5110877;28;20213;-77
2021/09/29 13:41:11;;;;;;;3.55;0.93;;;;;;;;;;5123007;27;20201;-77
2021/09/29 13:43:38;;;;;;;3.75;0.70;;;;;;;;;;5136496;27;20543;-77
2021/09/29 13:46:08;;;;;;;3.28;0.60;;;;;;;;;;5136969;27;20206;-77
2021/09/29 13:48:35;;;;;;;4.28;0.85;;;;;;;;;;5126532;27;20292;-77
2021/09/29 13:51:03;;;;;;;3.90;0.50;;;;;;;;;;5136951;27;20200;-78
2021/09/29 13:53:30;;;;;;;4.20;0.75;;;;;;;;;;5134522;27;20643;-77
2021/09/29 13:55:59;;;;;;;2.42;0.52;;;;;;;;;;5132080;27;20248;-78
2021/09/29 13:58:47;;;;;;;2.90;0.70;;;;;;;;;;5141804;27;20711;-78
2021/09/29 14:15:28;;;;;;;2.90;0.70;;;;;;;;;;5139041;27;20234;-77
2021/09/29 14:29:05;;;;;;;2.85;0.65;;;;;;;;;;5066366;28;20236;-78
2021/09/29 14:31:38;;;;;;;3.13;0.75;;;;;;;;;;5069733;28;20230;-79
2021/09/29 14:34:07;;;;;;;4.10;0.70;;;;;;;;;;5071540;28;20272;-78
2021/09/29 14:36:34;;;;;;;2.63;0.60;;;;;;;;;;5070221;28;20227;-78
2021/09/29 14:39:01;;;;;;;4.35;0.80;;;;;;;;;;5068370;28;20742;-78
2021/09/29 14:41:28;;;;;;;2.60;0.77;;;;;;;;;;5074058;28;20286;-78
2021/09/29 14:43:56;;;;;;;3.22;0.80;;;;;;;;;;5077854;28;20223;-78
2021/09/29 14:46:23;;;;;;;3.75;1.00;;;;;;;;;;5066227;28;20951;-78
2021/09/29 14:48:51;;;;;;;5.57;0.85;;;;;;;;;;5071346;28;20744;-78
2021/09/29 14:51:19;;;;;;;4.13;0.70;;;;;;;;;;5071047;28;20644;-78
2021/09/29 14:53:49;;;;;;;4.70;1.00;;;;;;;;;;5070507;28;20325;-78
2021/09/29 14:56:19;;;;;;;3.53;0.70;;;;;;;;;;5071066;28;20691;-78
2021/09/29 14:58:46;;;;;;;4.88;0.90;;;;;;;;;;5070591;28;20233;-78
2021/09/29 15:01:14;;;;;;;4.95;1.00;;;;;;;;;;5105945;27;20284;-78
2021/09/29 15:03:41;;;;;;;4.45;0.63;;;;;;;;;;5123727;27;20222;-77
2021/09/29 15:06:09;;;;;;;3.28;0.98;;;;;;;;;;5141238;27;20245;-79
2021/09/29 15:08:41;;;;;;;4.95;0.60;;;;;;;;;;5118187;27;20284;-80
2021/09/29 15:11:09;;;;;;;3.78;0.60;;;;;;;;;;5129273;27;20284;-78
2021/09/29 15:13:44;;;;;;;5.20;0.60;;;;;;;;;;5131582;27;20570;-79
2021/09/29 15:16:14;;;;;;;2.20;0.60;;;;;;;;;;5117576;27;20590;-83
2021/09/29 15:18:48;;;;;;;2.22;0.40;;;;;;;;;;5118854;27;20237;-80
2021/09/29 15:21:29;;;;;;;2.05;0.40;;;;;;;;;;5125676;27;20217;-80
2021/09/29 15:24:26;;;;;;;1.85;0.40;;;;;;;;;;5124426;27;20204;-80
2021/09/29 15:52:21;;;;;;;2.63;0.52;;;;;;;;;;5098105;28;20206;-79
2021/09/29 15:55:03;;;;;;;3.83;0.77;;;;;;;;;;5124576;27;20190;-79
2021/09/29 16:03:07;;;;;;;2.38;0.70;;;;;;;;;;5060475;28;20223;-79
2021/09/29 16:05:45;;;;;;;4.27;0.80;;;;;;;;;;5051671;28;20210;-79
2021/09/29 16:08:22;;;;;;;3.10;0.87;;;;;;;;;;5053873;28;20195;-76
2021/09/29 16:13:50;;;;;;;3.20;0.50;;;;;;;;;;5058358;28;20202;-77
2021/09/29 16:30:13;;;;;;;2.30;0.50;;;;;;;;;;5009610;28;20593;-77
2021/09/29 16:32:54;;;;;;;4.63;0.70;;;;;;;;;;5012446;28;20200;-77
2021/09/29 16:35:29;;;;;;;4.20;0.97;;;;;;;;;;5020377;28;20197;-76
2021/09/29 16:37:58;;;;;;;3.27;0.80;;;;;;;;;;5064959;28;20229;-76
2021/09/29 16:40:26;;;;;;;3.20;0.57;;;;;;;;;;5069149;28;20684;-76
2021/09/29 16:42:54;;;;;;;3.50;0.67;;;;;;;;;;5080778;28;20279;-76
2021/09/29 16:45:25;;;;;;;1.97;0.57;;;;;;;;;;5082025;28;20191;-76
2021/09/29 16:47:54;;;;;;;3.10;0.50;;;;;;;;;;5070401;28;20306;-77
2021/09/29 16:50:26;;;;;;;4.77;0.80;;;;;;;;;;5078636;28;20206;-77
2021/09/29 16:52:56;;;;;;;3.43;0.60;;;;;;;;;;5076617;28;20198;-76
2021/09/29 16:55:28;;;;;;;3.70;0.70;;;;;;;;;;5078364;28;20207;-77
2021/09/29 16:58:07;;;;;;;2.43;0.60;;;;;;;;;;5074398;28;20222;-77
2021/09/29 17:00:50;;;;;;;3.70;0.70;;;;;;;;;;5081003;28;20194;-76
2021/09/29 17:03:17;;;;;;;5.87;0.80;;;;;;;;;;5122726;28;20214;-76
2021/09/29 17:05:44;;;;;;;6.53;0.90;;;;;;;;;;5123337;27;20204;-76
2021/09/29 17:08:11;;;;;;;4.10;0.83;;;;;;;;;;5119261;27;20223;-76
2021/09/29 17:10:39;;;;;;;6.43;0.77;;;;;;;;;;5123786;27;20747;-76
2021/09/29 17:13:07;;;;;;;6.17;0.70;;;;;;;;;;5128684;27;20193;-77
2021/09/29 17:15:36;;;;;;;4.77;0.70;;;;;;;;;;5124044;27;20225;-77
2021/09/29 17:18:03;;;;;;;6.30;0.83;;;;;;;;;;5124856;27;20289;-76
2021/09/29 17:20:30;;;;;;;3.50;0.60;;;;;;;;;;5124605;27;20723;-77
2021/09/29 17:22:59;;;;;;;4.40;0.70;;;;;;;;;;5126977;27;20292;-76
2021/09/29 17:25:27;;;;;;;4.10;0.90;;;;;;;;;;5125571;27;20197;-76
2021/09/29 17:27:55;;;;;;;4.77;1.00;;;;;;;;;;5127315;27;20288;-77
2021/09/29 17:30:25;;;;;;;3.60;0.60;;;;;;;;;;5125135;27;20284;-76
2021/09/29 17:35:53;;;;;;;6.03;0.77;;;;;;;;;;5111797;27;20204;-77
2021/09/29 17:52:15;;;;;;;5.07;0.77;;;;;;;;;;5131360;27;20220;-78
2021/09/29 17:54:42;;;;;;;4.13;1.13;;;;;;;;;;5126193;27;20200;-76
2021/09/29 17:57:10;;;;;;;5.60;1.07;;;;;;;;;;5121449;27;20312;-76
2021/09/29 17:59:39;;;;;;;3.87;0.70;;;;;;;;;;5123784;27;20221;-76
2021/09/29 18:02:09;;;;;;;4.27;0.60;;;;;;;;;;5121896;27;20212;-76
2021/09/29 18:04:40;;;;;;;3.20;0.70;;;;;;;;;;5117058;27;20209;-75
2021/09/29 18:07:23;;;;;;;6.77;0.73;;;;;;;;;;5123745;27;20200;-75
2021/09/29 18:09:51;;;;;;;6.00;1.10;;;;;;;;;;5122472;27;20223;-76
2021/09/29 18:12:18;;;;;;;4.53;1.10;;;;;;;;;;5132727;27;20193;-76
2021/09/29 18:14:45;;;;;;;3.97;1.00;;;;;;;;;;5119078;27;20201;-76
2021/09/29 18:17:13;;;;;;;3.73;1.00;;;;;;;;;;5129059;27;20895;-76
2021/09/29 18:19:41;;;;;;;5.60;1.10;;;;;;;;;;4408180;27;10000744;-76
2021/09/29 18:22:09;;;;;;;8.67;0.90;;;;;;;;;;5125290;27;20618;-77
2021/09/29 18:24:37;;;;;;;4.00;0.87;;;;;;;;;;5119228;27;20292;-76